Time;durP1;ratioP1;P1;durP2;ratioP2;P2;SDS_P1;SDS_P2;PMS_P1;PMS_P2;Temp;Humidity;BMP_temperature;BMP_pressure;BME280_temperature;BME280_humidity;BME280_pressure;Samples;Min_cycle;Max_cycle;Signal;HPM_P1;HPM_P2
2021/12/03 00:00:07;;;;;;;5.75;2.15;;;0.90;99.90;;;;;;4964143;28;20049;-72
2021/12/03 00:02:34;;;;;;;4.97;1.90;;;0.70;99.90;;;;;;4965312;28;20050;-72
2021/12/03 00:05:00;;;;;;;2.70;1.63;;;1.60;99.90;;;;;;4945690;28;20053;-72
2021/12/03 00:07:25;;;;;;;4.68;1.83;;;1.70;99.90;;;;;;4961198;28;20043;-72
2021/12/03 00:09:51;;;;;;;4.18;2.00;;;1.70;99.90;;;;;;4966609;28;20050;-72
2021/12/03 00:12:17;;;;;;;7.65;2.30;;;1.80;99.90;;;;;;4963038;28;20049;-72
2021/12/03 00:14:42;;;;;;;4.80;2.60;;;0.70;99.90;;;;;;4942047;28;20403;-72
2021/12/03 00:17:08;;;;;;;5.80;2.35;;;0.80;99.90;;;;;;4944875;28;20159;-72
2021/12/03 00:19:34;;;;;;;5.93;2.70;;;0.90;99.90;;;;;;4985599;28;20046;-72
2021/12/03 00:21:59;;;;;;;5.43;2.28;;;1.10;99.90;;;;;;4964450;28;20046;-72
2021/12/03 00:24:25;;;;;;;3.90;1.73;;;1.00;99.90;;;;;;4973114;28;20050;-72
2021/12/03 00:26:51;;;;;;;8.77;2.50;;;1.00;99.90;;;;;;5027732;28;20152;-72
2021/12/03 00:29:17;;;;;;;3.53;1.80;;;2.20;99.90;;;;;;5026226;28;20447;-72
2021/12/03 00:31:42;;;;;;;5.10;1.88;;;1.60;99.90;;;;;;5024445;28;20090;-72
2021/12/03 00:34:08;;;;;;;6.00;2.20;;;2.10;99.90;;;;;;5042130;28;20150;-72
2021/12/03 00:36:34;;;;;;;4.47;1.95;;;1.10;99.90;;;;;;5023484;28;20044;-72
2021/12/03 00:39:00;;;;;;;2.95;1.88;;;1.20;99.90;;;;;;5042779;28;20040;-72
2021/12/03 00:41:32;;;;;;;4.10;2.17;;;1.70;99.90;;;;;;5041597;28;20143;-72
2021/12/03 00:43:58;;;;;;;7.00;2.20;;;1.30;99.90;;;;;;5020651;28;20063;-72
2021/12/03 00:46:23;;;;;;;4.93;1.60;;;1.70;99.90;;;;;;5039383;28;20045;-72
2021/12/03 00:48:51;;;;;;;3.25;1.70;;;1.30;99.90;;;;;;5038878;28;20053;-72
2021/12/03 00:51:19;;;;;;;7.50;1.83;;;1.30;99.90;;;;;;5036132;28;20045;-73
2021/12/03 00:53:46;;;;;;;3.20;1.63;;;2.30;99.90;;;;;;5030209;28;20049;-72
2021/12/03 00:56:13;;;;;;;3.20;1.52;;;1.30;99.90;;;;;;5051301;28;20041;-72
2021/12/03 00:58:39;;;;;;;5.35;1.60;;;1.40;99.90;;;;;;5053825;28;20047;-72
2021/12/03 01:01:07;;;;;;;4.03;2.17;;;1.20;99.90;;;;;;5032479;28;20049;-72
2021/12/03 01:03:35;;;;;;;4.75;2.45;;;1.50;99.90;;;;;;5061405;28;20044;-72
2021/12/03 01:06:00;;;;;;;6.43;1.80;;;2.30;99.90;;;;;;5066344;28;20429;-72
2021/12/03 01:08:26;;;;;;;4.93;1.92;;;2.00;99.90;;;;;;5044388;28;20092;-73
2021/12/03 01:10:52;;;;;;;7.07;2.17;;;2.20;99.90;;;;;;5041654;28;20472;-72
2021/12/03 01:13:18;;;;;;;4.43;2.00;;;1.80;99.90;;;;;;5046389;28;20069;-72
2021/12/03 01:15:44;;;;;;;4.40;2.08;;;2.20;99.90;;;;;;5057760;28;20046;-72
2021/12/03 01:18:11;;;;;;;4.13;1.90;;;1.70;99.90;;;;;;5044671;28;20051;-73
2021/12/03 01:20:40;;;;;;;7.78;2.35;;;1.10;99.90;;;;;;5048897;28;20408;-73
2021/12/03 01:23:07;;;;;;;5.28;2.30;;;1.50;99.90;;;;;;5028241;28;20063;-73
2021/12/03 01:25:33;;;;;;;4.43;2.05;;;2.10;99.90;;;;;;4998856;28;20062;-72
2021/12/03 01:28:00;;;;;;;4.43;1.75;;;1.90;99.90;;;;;;4995261;28;20051;-73
2021/12/03 01:30:27;;;;;;;3.47;2.00;;;2.50;99.90;;;;;;4946112;28;20055;-73
2021/12/03 01:32:54;;;;;;;4.75;1.90;;;1.10;99.90;;;;;;4944768;28;20046;-73
2021/12/03 01:35:20;;;;;;;2.88;1.95;;;1.40;99.90;;;;;;4947127;29;20035;-73
2021/12/03 01:37:47;;;;;;;4.50;1.90;;;1.20;99.90;;;;;;4946758;28;20391;-73
2021/12/03 01:40:19;;;;;;;6.45;2.35;;;1.00;99.90;;;;;;4940628;28;20047;-73
2021/12/03 01:42:45;;;;;;;10.60;3.38;;;2.30;99.90;;;;;;4948374;28;20082;-72
2021/12/03 01:45:28;;;;;;;4.32;2.50;;;1.40;99.90;;;;;;4946124;29;20050;-72
2021/12/03 01:47:57;;;;;;;4.43;1.90;;;1.00;99.90;;;;;;4949406;28;20047;-72
2021/12/03 01:50:27;;;;;;;5.93;2.38;;;1.30;99.90;;;;;;4945711;29;20044;-72
2021/12/03 01:52:54;;;;;;;3.35;2.00;;;1.10;99.90;;;;;;4945727;28;20442;-72
2021/12/03 01:55:20;;;;;;;4.82;2.10;;;1.20;99.90;;;;;;4948732;28;20046;-72
2021/12/03 01:57:46;;;;;;;6.60;1.95;;;1.90;99.90;;;;;;4939619;29;20086;-72
2021/12/03 02:00:51;;;;;;;5.90;2.75;;;1.80;99.90;;;;;;4943708;28;20055;-72
2021/12/03 02:03:18;;;;;;;3.13;2.10;;;1.70;99.90;;;;;;4940711;28;20510;-72
2021/12/03 02:05:45;;;;;;;3.00;1.67;;;2.50;99.90;;;;;;4943368;28;20302;-72
2021/12/03 02:08:11;;;;;;;5.97;1.70;;;2.30;99.90;;;;;;4938902;28;20470;-72
2021/12/03 02:10:39;;;;;;;5.75;1.80;;;1.10;99.90;;;;;;4938595;28;20410;-72
2021/12/03 02:13:05;;;;;;;5.45;1.60;;;1.30;99.90;;;;;;4937882;28;20044;-72
2021/12/03 02:15:31;;;;;;;3.35;1.67;;;2.40;99.90;;;;;;4969015;28;20126;-72
2021/12/03 02:17:57;;;;;;;4.07;1.80;;;0.80;99.90;;;;;;4943404;28;20054;-72
2021/12/03 02:20:24;;;;;;;2.65;1.70;;;2.00;99.90;;;;;;4911021;28;20047;-73
2021/12/03 02:22:50;;;;;;;7.57;2.00;;;2.30;99.90;;;;;;4943484;28;20104;-72
2021/12/03 02:25:21;;;;;;;6.20;2.10;;;1.60;99.90;;;;;;4954130;28;20045;-72
2021/12/03 02:27:56;;;;;;;4.65;2.17;;;2.40;99.90;;;;;;5003321;28;20050;-72
2021/12/03 02:30:24;;;;;;;4.38;2.30;;;2.60;99.90;;;;;;4965664;28;20126;-73
2021/12/03 02:32:51;;;;;;;6.47;1.95;;;2.60;99.90;;;;;;4978621;28;20132;-72
2021/12/03 02:35:19;;;;;;;2.50;1.85;;;1.30;99.90;;;;;;4980812;28;20232;-72
2021/12/03 02:37:45;;;;;;;2.80;1.90;;;1.50;99.90;;;;;;4972061;28;20505;-72
2021/12/03 02:40:14;;;;;;;5.93;2.28;;;2.70;99.90;;;;;;4999442;28;20565;-72
2021/12/03 02:42:40;;;;;;;5.60;2.20;;;2.00;99.90;;;;;;4984770;28;20046;-72
2021/12/03 02:45:07;;;;;;;2.78;1.65;;;2.20;99.90;;;;;;4971892;28;20129;-72
2021/12/03 02:47:33;;;;;;;4.75;1.70;;;2.50;99.90;;;;;;4961293;28;20437;-72
2021/12/03 02:49:58;;;;;;;3.75;1.77;;;1.10;99.90;;;;;;4984982;28;20046;-72
2021/12/03 02:52:24;;;;;;;3.10;1.67;;;2.30;99.90;;;;;;4972485;28;20038;-72
2021/12/03 02:54:50;;;;;;;4.00;1.63;;;0.90;99.90;;;;;;4955312;28;20084;-72
2021/12/03 02:57:16;;;;;;;2.63;1.83;;;2.30;99.90;;;;;;4974669;28;20042;-72
2021/12/03 02:59:42;;;;;;;6.90;1.90;;;1.60;99.90;;;;;;4960765;28;20068;-72
2021/12/03 03:02:07;;;;;;;2.22;1.60;;;2.40;99.90;;;;;;4989608;28;20042;-72
2021/12/03 03:04:33;;;;;;;4.38;1.55;;;2.40;99.90;;;;;;4991996;28;20445;-72
2021/12/03 03:07:00;;;;;;;5.05;2.40;;;1.30;99.90;;;;;;5003919;28;20096;-72
2021/12/03 03:09:26;;;;;;;4.53;2.17;;;1.20;99.90;;;;;;4996290;28;20061;-72
2021/12/03 03:11:52;;;;;;;8.48;3.28;;;2.40;99.90;;;;;;4956097;28;20092;-73
2021/12/03 03:14:17;;;;;;;6.20;3.65;;;2.60;99.90;;;;;;4953526;28;20042;-72
2021/12/03 03:16:44;;;;;;;8.18;3.58;;;1.30;99.90;;;;;;4971266;28;20039;-73
2021/12/03 03:19:17;;;;;;;9.75;4.72;;;2.30;99.90;;;;;;4972506;28;20367;-72
2021/12/03 03:21:44;;;;;;;7.55;4.90;;;1.90;99.90;;;;;;4994550;28;20125;-73
2021/12/03 03:24:10;;;;;;;9.40;5.30;;;1.40;99.90;;;;;;4972701;28;20096;-72
2021/12/03 03:26:44;;;;;;;10.32;5.47;;;1.60;99.90;;;;;;4967618;28;20614;-72
2021/12/03 03:29:13;;;;;;;16.25;7.32;;;2.40;99.90;;;;;;4974270;28;20049;-72
2021/12/03 03:31:39;;;;;;;11.85;6.43;;;1.60;99.90;;;;;;5007612;28;20042;-73
2021/12/03 03:34:06;;;;;;;22.27;8.90;;;1.60;99.90;;;;;;5046540;28;20121;-72
2021/12/03 03:36:37;;;;;;;19.42;9.68;;;2.20;99.90;;;;;;4978673;28;21056;-72
2021/12/03 03:39:06;;;;;;;13.63;8.77;;;1.60;99.90;;;;;;4957283;28;20043;-71
2021/12/03 03:41:31;;;;;;;19.17;10.52;;;3.10;99.90;;;;;;5045206;28;20048;-72
2021/12/03 03:43:57;;;;;;;21.42;11.30;;;1.80;99.90;;;;;;4992898;28;20043;-72
2021/12/03 03:46:24;;;;;;;23.45;12.88;;;3.10;99.90;;;;;;5004803;28;20459;-72
2021/12/03 03:48:50;;;;;;;20.25;12.30;;;2.90;99.90;;;;;;4987057;28;20056;-72
2021/12/03 03:51:16;;;;;;;23.25;11.95;;;1.80;99.90;;;;;;5012547;28;20065;-72
2021/12/03 03:53:42;;;;;;;22.75;13.70;;;2.30;99.90;;;;;;4982671;28;20458;-72
2021/12/03 03:56:09;;;;;;;21.90;14.10;;;2.30;99.90;;;;;;4969351;28;20077;-72
2021/12/03 03:58:37;;;;;;;22.73;15.05;;;1.70;99.90;;;;;;4973843;28;20038;-72
2021/12/03 04:01:04;;;;;;;22.42;14.45;;;3.10;99.90;;;;;;5005783;28;20108;-72
2021/12/03 04:03:32;;;;;;;29.35;16.15;;;3.00;99.90;;;;;;4970363;28;20134;-72
2021/12/03 04:05:59;;;;;;;29.80;17.23;;;3.20;99.90;;;;;;4981679;28;20038;-73
2021/12/03 04:08:28;;;;;;;29.38;17.02;;;3.20;99.90;;;;;;5016208;28;20153;-72
2021/12/03 04:10:54;;;;;;;32.85;19.75;;;3.20;99.90;;;;;;4977068;28;20118;-72
2021/12/03 04:13:20;;;;;;;29.73;16.80;;;2.30;99.90;;;;;;5014444;28;20093;-71
2021/12/03 04:15:46;;;;;;;34.05;19.27;;;1.80;99.90;;;;;;4978041;28;20038;-72
2021/12/03 04:18:11;;;;;;;30.98;17.30;;;3.20;99.90;;;;;;5008123;28;20319;-71
2021/12/03 04:20:37;;;;;;;32.63;19.67;;;2.70;99.90;;;;;;4969539;28;20104;-72
2021/12/03 04:23:03;;;;;;;31.85;17.38;;;3.00;99.90;;;;;;5016795;28;20035;-72
2021/12/03 04:25:29;;;;;;;36.60;21.17;;;2.60;99.90;;;;;;4972918;28;20074;-71
2021/12/03 04:27:54;;;;;;;28.05;17.55;;;2.60;99.90;;;;;;4967605;28;20128;-72
2021/12/03 04:30:24;;;;;;;28.60;18.27;;;2.30;99.90;;;;;;4983826;28;20046;-72
2021/12/03 04:32:54;;;;;;;29.52;18.70;;;1.70;99.90;;;;;;5020737;28;20045;-72
2021/12/03 04:35:20;;;;;;;29.75;18.67;;;2.70;99.90;;;;;;5005945;28;20071;-72
2021/12/03 04:37:46;;;;;;;28.85;18.25;;;2.10;99.90;;;;;;4990986;28;20034;-72
2021/12/03 04:40:15;;;;;;;29.08;18.85;;;2.90;99.90;;;;;;4986382;28;20056;-71
2021/12/03 04:42:40;;;;;;;26.77;17.50;;;2.40;99.90;;;;;;5008754;28;20061;-72
2021/12/03 04:45:08;;;;;;;27.63;18.30;;;2.90;99.90;;;;;;4994663;28;20050;-72
2021/12/03 04:47:34;;;;;;;29.60;18.90;;;2.30;99.90;;;;;;5015838;28;20082;-72
2021/12/03 04:50:02;;;;;;;27.15;17.60;;;2.70;99.90;;;;;;4994992;28;20045;-71
2021/12/03 04:52:27;;;;;;;23.50;15.60;;;2.90;99.90;;;;;;4963267;28;20398;-72
2021/12/03 04:54:53;;;;;;;24.33;16.50;;;2.80;99.90;;;;;;5010036;28;20031;-72
2021/12/03 04:57:19;;;;;;;25.33;17.20;;;2.10;99.90;;;;;;5004012;28;20066;-72
2021/12/03 04:59:44;;;;;;;28.80;17.95;;;2.90;99.90;;;;;;5039880;28;20077;-72
2021/12/03 05:02:10;;;;;;;22.27;16.50;;;2.80;99.90;;;;;;4990427;28;20124;-71
2021/12/03 05:04:39;;;;;;;23.65;16.98;;;2.60;99.90;;;;;;5012441;28;20117;-72
2021/12/03 05:07:27;;;;;;;25.13;16.25;;;1.80;99.90;;;;;;5012422;28;20032;-72
2021/12/03 05:09:52;;;;;;;23.17;17.08;;;2.20;99.90;;;;;;5014786;28;20125;-72
2021/12/03 05:12:18;;;;;;;22.42;14.85;;;2.50;99.90;;;;;;5000091;28;20535;-72
2021/12/03 05:14:44;;;;;;;23.95;16.75;;;2.90;99.90;;;;;;5002973;28;20127;-72
2021/12/03 05:17:10;;;;;;;24.65;15.35;;;1.40;99.90;;;;;;4982991;28;20129;-71
2021/12/03 05:19:35;;;;;;;24.38;16.15;;;1.70;99.90;;;;;;5023374;28;20044;-72
2021/12/03 05:22:01;;;;;;;22.23;15.68;;;1.50;99.90;;;;;;4980898;28;20145;-72
2021/12/03 05:24:27;;;;;;;24.00;16.30;;;1.30;99.90;;;;;;5020047;28;20047;-72
2021/12/03 05:26:53;;;;;;;24.50;15.77;;;2.50;99.90;;;;;;4975521;28;20139;-72
2021/12/03 05:29:19;;;;;;;20.80;14.68;;;1.40;99.90;;;;;;4984764;28;20042;-72
2021/12/03 05:31:44;;;;;;;20.77;15.15;;;1.90;99.90;;;;;;4975734;28;20043;-72
2021/12/03 05:34:13;;;;;;;21.85;15.35;;;1.40;99.90;;;;;;4990488;28;20541;-72
2021/12/03 05:36:39;;;;;;;20.40;14.60;;;2.60;99.90;;;;;;4985376;28;20076;-72
2021/12/03 05:39:06;;;;;;;28.27;17.60;;;2.60;99.90;;;;;;4969158;28;20039;-72
2021/12/03 05:41:33;;;;;;;23.98;14.90;;;2.00;99.90;;;;;;4973162;28;20443;-72
2021/12/03 05:43:59;;;;;;;23.02;16.50;;;2.50;99.90;;;;;;4994538;28;20517;-72
2021/12/03 05:46:25;;;;;;;19.80;14.55;;;1.30;99.90;;;;;;4999607;28;20051;-72
2021/12/03 05:48:51;;;;;;;20.33;14.23;;;2.40;99.90;;;;;;4993009;28;20046;-71
2021/12/03 05:51:17;;;;;;;17.75;13.73;;;2.30;99.90;;;;;;4999006;28;20057;-72
2021/12/03 05:53:43;;;;;;;25.88;16.70;;;3.00;99.90;;;;;;4998730;28;20036;-73
2021/12/03 05:56:08;;;;;;;23.10;16.17;;;1.30;99.90;;;;;;4980292;28;20038;-72
2021/12/03 05:58:34;;;;;;;23.27;16.88;;;2.20;99.90;;;;;;5009162;28;20066;-72
2021/12/03 06:01:00;;;;;;;23.40;16.27;;;2.30;99.90;;;;;;5046565;28;20042;-72
2021/12/03 06:03:25;;;;;;;24.75;18.98;;;1.90;99.90;;;;;;5029093;28;20071;-72
2021/12/03 06:05:52;;;;;;;21.77;15.40;;;1.50;99.90;;;;;;5005280;28;20058;-72
2021/12/03 06:08:18;;;;;;;26.92;17.70;;;1.70;99.90;;;;;;5057420;28;20043;-71
2021/12/03 06:10:44;;;;;;;24.45;16.27;;;1.50;99.90;;;;;;5012625;28;20589;-72
2021/12/03 06:13:10;;;;;;;22.65;16.75;;;2.40;99.90;;;;;;4985371;28;20408;-72
2021/12/03 06:15:36;;;;;;;22.35;15.43;;;2.30;99.90;;;;;;4992630;28;20515;-72
2021/12/03 06:18:02;;;;;;;23.30;16.42;;;1.40;99.90;;;;;;5007616;28;20063;-72
2021/12/03 06:20:28;;;;;;;23.15;17.48;;;2.00;99.90;;;;;;5040594;28;20042;-72
2021/12/03 06:22:54;;;;;;;22.58;17.38;;;2.40;99.90;;;;;;5004359;28;20046;-72
2021/12/03 06:25:20;;;;;;;18.42;15.27;;;1.50;99.90;;;;;;4979088;28;20453;-72
2021/12/03 06:27:47;;;;;;;24.13;16.25;;;2.30;99.90;;;;;;4997788;28;20038;-72
2021/12/03 06:30:16;;;;;;;19.80;15.43;;;1.50;99.90;;;;;;5021402;28;20467;-72
2021/12/03 06:32:42;;;;;;;21.73;15.32;;;2.20;99.90;;;;;;5011711;28;20551;-72
2021/12/03 06:35:09;;;;;;;20.77;15.73;;;1.50;99.90;;;;;;4984594;28;20125;-72
2021/12/03 06:37:36;;;;;;;22.92;14.57;;;2.50;99.90;;;;;;4987268;28;20050;-72
2021/12/03 06:40:04;;;;;;;23.15;15.85;;;2.00;99.90;;;;;;4997609;28;20133;-72
2021/12/03 06:42:31;;;;;;;19.95;13.75;;;1.70;99.90;;;;;;5003302;28;20050;-72
2021/12/03 06:44:57;;;;;;;22.00;15.55;;;2.10;99.90;;;;;;4974317;28;20043;-72
2021/12/03 06:47:23;;;;;;;24.15;17.00;;;2.00;99.90;;;;;;4992383;28;20458;-71
2021/12/03 06:49:49;;;;;;;23.50;16.52;;;2.60;99.90;;;;;;5012267;28;20107;-72
2021/12/03 06:52:16;;;;;;;24.30;16.70;;;1.90;99.90;;;;;;4980579;28;20100;-72
2021/12/03 06:54:42;;;;;;;24.88;17.33;;;1.70;99.90;;;;;;4988731;28;20054;-72
2021/12/03 06:57:08;;;;;;;31.05;17.75;;;2.10;99.90;;;;;;5058584;28;20047;-72
2021/12/03 06:59:36;;;;;;;18.83;13.50;;;2.20;99.90;;;;;;4987079;28;20050;-71
2021/12/03 07:02:02;;;;;;;21.08;14.82;;;2.30;99.90;;;;;;4967441;28;20046;-71
2021/12/03 07:04:28;;;;;;;19.60;15.13;;;2.80;99.90;;;;;;5036620;28;20051;-71
2021/12/03 07:06:54;;;;;;;22.73;16.33;;;3.00;99.90;;;;;;4996061;28;20042;-71
2021/12/03 07:09:20;;;;;;;22.27;14.30;;;3.40;99.90;;;;;;5002271;28;20047;-72
2021/12/03 07:11:46;;;;;;;25.05;17.17;;;3.10;99.90;;;;;;4976045;28;20050;-71
2021/12/03 07:14:12;;;;;;;23.63;17.48;;;2.90;99.90;;;;;;4975171;28;20038;-72
2021/12/03 07:16:38;;;;;;;24.70;16.75;;;3.00;99.90;;;;;;4987068;28;20087;-73
2021/12/03 07:19:05;;;;;;;21.23;14.80;;;2.30;99.90;;;;;;5003066;28;20086;-73
2021/12/03 07:21:31;;;;;;;19.23;14.68;;;3.10;99.90;;;;;;4990779;28;20129;-72
2021/12/03 07:23:57;;;;;;;25.20;15.80;;;2.20;99.90;;;;;;4989877;28;20129;-72
2021/12/03 07:26:24;;;;;;;23.33;15.18;;;3.20;99.90;;;;;;4972681;28;20123;-72
2021/12/03 07:28:51;;;;;;;20.27;13.90;;;2.40;99.90;;;;;;5005368;28;20054;-71
2021/12/03 07:31:17;;;;;;;20.60;13.75;;;2.20;99.90;;;;;;4993658;28;20042;-71
2021/12/03 07:33:43;;;;;;;18.48;13.00;;;3.80;99.90;;;;;;4990776;28;20038;-72
2021/12/03 07:36:09;;;;;;;18.35;12.93;;;2.90;99.90;;;;;;4956889;28;20074;-72
2021/12/03 07:38:36;;;;;;;15.70;11.85;;;3.50;99.90;;;;;;4952495;28;20047;-71
2021/12/03 07:41:02;;;;;;;19.23;11.80;;;2.40;99.90;;;;;;5039486;28;20042;-72
2021/12/03 07:43:28;;;;;;;18.58;11.77;;;3.00;99.90;;;;;;5029106;28;20603;-72
2021/12/03 07:45:54;;;;;;;22.90;12.43;;;3.40;99.90;;;;;;4954897;28;20046;-72
2021/12/03 07:48:22;;;;;;;14.73;10.02;;;2.20;99.90;;;;;;4993707;28;20042;-72
2021/12/03 07:50:49;;;;;;;16.17;10.40;;;3.10;99.90;;;;;;4982949;28;20036;-72
2021/12/03 07:53:17;;;;;;;15.10;10.52;;;3.50;99.90;;;;;;5022821;28;20053;-72
2021/12/03 07:55:45;;;;;;;14.48;10.48;;;2.10;99.90;;;;;;5022373;28;20055;-72
2021/12/03 07:58:10;;;;;;;15.45;10.43;;;3.30;99.90;;;;;;4987339;28;20046;-72
2021/12/03 08:00:36;;;;;;;16.98;9.75;;;2.60;99.90;;;;;;4950985;28;20046;-72
2021/12/03 08:03:03;;;;;;;14.00;8.30;;;2.30;99.90;;;;;;4955338;28;20123;-73
2021/12/03 08:05:29;;;;;;;18.77;9.40;;;2.30;99.90;;;;;;4972259;28;20050;-72
2021/12/03 08:07:55;;;;;;;10.52;8.35;;;3.20;99.90;;;;;;5004379;28;20041;-72
2021/12/03 08:10:21;;;;;;;13.52;8.20;;;3.60;99.90;;;;;;5048978;28;20034;-72
2021/12/03 08:12:47;;;;;;;15.25;8.43;;;2.40;99.90;;;;;;4961997;28;20057;-71
2021/12/03 08:15:15;;;;;;;9.18;5.85;;;2.40;99.90;;;;;;4998572;28;20046;-72
2021/12/03 08:17:41;;;;;;;11.75;6.70;;;2.40;99.90;;;;;;5057142;28;20046;-72
2021/12/03 08:20:08;;;;;;;12.02;7.28;;;2.90;99.90;;;;;;4983170;28;20057;-71
2021/12/03 08:22:35;;;;;;;12.93;7.53;;;3.40;99.90;;;;;;4974069;28;20051;-72
2021/12/03 08:25:02;;;;;;;14.13;8.18;;;2.50;99.90;;;;;;4972463;28;20065;-72
2021/12/03 08:27:28;;;;;;;19.95;7.85;;;3.40;99.90;;;;;;4979716;28;20077;-72
2021/12/03 08:29:54;;;;;;;12.45;8.13;;;2.50;99.90;;;;;;4989915;28;20073;-72
2021/12/03 08:32:20;;;;;;;15.52;7.53;;;3.40;99.90;;;;;;5033969;28;20062;-71
2021/12/03 08:34:45;;;;;;;15.68;8.00;;;3.40;99.90;;;;;;5047173;28;20062;-71
2021/12/03 08:37:11;;;;;;;13.43;7.88;;;2.40;99.90;;;;;;5039762;28;20048;-71
2021/12/03 08:39:38;;;;;;;16.77;7.63;;;3.30;99.90;;;;;;4985555;28;20050;-71
2021/12/03 08:42:09;;;;;;;14.80;7.70;;;3.00;99.90;;;;;;5047290;28;20077;-72
2021/12/03 08:44:35;;;;;;;17.60;8.20;;;2.50;99.90;;;;;;4990743;28;20100;-72
2021/12/03 08:47:03;;;;;;;13.38;7.55;;;3.00;99.90;;;;;;5019732;28;20440;-72
2021/12/03 08:49:32;;;;;;;14.48;8.13;;;3.50;99.90;;;;;;4992122;28;20049;-72
2021/12/03 08:57:12;;;;;;;12.32;8.30;;;3.60;99.90;;;;;;4954294;28;20102;-72
2021/12/03 08:59:38;;;;;;;15.95;8.60;;;2.70;99.90;;;;;;4964500;28;20054;-73
2021/12/03 09:02:04;;;;;;;13.02;7.50;;;3.50;99.90;;;;;;5029495;28;20046;-72
2021/12/03 09:04:30;;;;;;;15.30;8.65;;;2.90;99.90;;;;;;5026298;28;20038;-73
2021/12/03 09:06:57;;;;;;;16.25;9.18;;;3.30;99.90;;;;;;4969507;28;20091;-72
2021/12/03 09:09:27;;;;;;;16.67;8.60;;;3.50;99.90;;;;;;4980942;28;20058;-72
2021/12/03 09:11:54;;;;;;;20.55;10.55;;;3.50;99.90;;;;;;5046762;28;20050;-72
2021/12/03 09:14:38;;;;;;;16.85;9.88;;;3.10;99.90;;;;;;4947793;28;20050;-72
2021/12/03 09:20:01;;;;;;;20.38;10.18;;;3.00;99.90;;;;;;4983593;28;20047;-72
2021/12/03 09:22:32;;;;;;;19.60;11.23;;;3.50;99.90;;;;;;4962211;28;20120;-73
2021/12/03 09:24:58;;;;;;;18.95;10.48;;;3.40;99.90;;;;;;4956586;28;20077;-73
2021/12/03 09:27:24;;;;;;;21.58;12.63;;;3.40;99.90;;;;;;4946724;28;20138;-73
2021/12/03 09:29:52;;;;;;;22.25;12.25;;;3.70;99.90;;;;;;4969260;28;20064;-73
2021/12/03 09:32:23;;;;;;;24.08;11.95;;;3.90;99.90;;;;;;4948474;28;20039;-72
2021/12/03 09:34:50;;;;;;;22.05;12.98;;;3.10;99.90;;;;;;4966807;28;20458;-73
2021/12/03 09:37:16;;;;;;;26.55;14.38;;;3.40;99.90;;;;;;4996673;28;20212;-73
2021/12/03 09:39:44;;;;;;;26.73;13.93;;;3.80;99.90;;;;;;4967233;28;20058;-73
2021/12/03 09:42:12;;;;;;;30.90;14.10;;;3.40;99.90;;;;;;5051553;28;20057;-73
2021/12/03 09:44:39;;;;;;;24.27;14.10;;;3.80;99.90;;;;;;5051183;28;20057;-73
2021/12/03 09:47:06;;;;;;;27.65;15.07;;;3.80;99.90;;;;;;4966159;28;20047;-72
2021/12/03 09:49:37;;;;;;;22.95;13.60;;;3.80;99.90;;;;;;4974890;28;20129;-73
2021/12/03 09:52:13;;;;;;;22.60;13.65;;;3.80;99.90;;;;;;4967415;28;20053;-73
2021/12/03 09:54:42;;;;;;;25.83;13.38;;;3.30;99.90;;;;;;4965784;28;20053;-72
2021/12/03 09:57:18;;;;;;;23.58;13.13;;;3.80;99.90;;;;;;4966176;28;20049;-72
2021/12/03 10:02:52;;;;;;;19.52;13.05;;;3.70;99.90;;;;;;5033313;28;20510;-72
2021/12/03 10:14:03;;;;;;;24.23;14.27;;;3.40;99.90;;;;;;4951770;28;20061;-73
2021/12/03 10:27:35;;;;;;;22.90;14.15;;;3.40;99.90;;;;;;5063645;28;20210;-72
2021/12/03 10:43:30;;;;;;;21.42;12.35;;;3.60;99.90;;;;;;5059541;28;20167;-72
2021/12/03 10:54:05;;;;;;;19.98;10.45;;;3.70;99.90;;;;;;5054449;28;20058;-72
2021/12/03 11:08:28;;;;;;;11.85;6.13;;;3.90;99.90;;;;;;5063451;28;20091;-72
2021/12/03 11:21:58;;;;;;;17.17;6.82;;;3.90;99.90;;;;;;5056562;28;20048;-72
2021/12/03 13:28:36;;;;;;;10.65;7.60;;;4.10;99.90;;;;;;4991245;28;20058;-73
2021/12/03 14:09:52;;;;;;;11.20;6.13;;;3.80;99.90;;;;;;4959017;28;20050;-72
2021/12/03 14:42:46;;;;;;;11.35;5.68;;;4.00;99.90;;;;;;4964886;28;20518;-71
2021/12/03 14:51:29;;;;;;;11.57;6.43;;;4.10;99.90;;;;;;4980034;28;20046;-71
2021/12/03 14:56:16;;;;;;;11.40;5.95;;;4.10;99.90;;;;;;4976823;28;20057;-72
2021/12/03 15:04:01;;;;;;;9.63;6.28;;;4.30;99.90;;;;;;4962836;28;20054;-71
2021/12/03 15:06:51;;;;;;;13.07;6.80;;;4.20;99.90;;;;;;4940606;28;20050;-72
2021/12/03 15:09:27;;;;;;;11.75;6.72;;;4.10;99.90;;;;;;4962214;28;20391;-73
2021/12/03 15:12:57;;;;;;;12.00;7.00;;;4.30;99.90;;;;;;4952654;28;20154;-72
2021/12/03 15:33:27;;;;;;;9.50;7.03;;;4.40;99.90;;;;;;4952201;28;20286;-71
2021/12/03 15:35:57;;;;;;;12.18;7.68;;;4.30;99.90;;;;;;4964361;28;20046;-71
2021/12/03 15:52:56;;;;;;;13.30;11.30;;;4.60;99.90;;;;;;4995850;28;20062;-72
2021/12/03 16:08:15;;;;;;;;;;;4.10;99.90;;;;;;4990397;28;20157;-71
2021/12/03 16:13:21;;;;;;;20.10;14.38;;;4.80;99.90;;;;;;4985200;28;20521;-72
2021/12/03 16:51:57;;;;;;;19.23;14.10;;;4.20;99.90;;;;;;4983739;28;20042;-72
2021/12/03 16:54:28;;;;;;;22.58;16.52;;;5.30;99.90;;;;;;4980438;28;20046;-72
2021/12/03 16:56:55;;;;;;;17.02;13.90;;;4.20;99.90;;;;;;4963824;28;20444;-71
2021/12/03 16:59:23;;;;;;;21.95;16.10;;;4.20;99.90;;;;;;4961879;28;20120;-72
2021/12/03 17:04:47;;;;;;;21.15;15.95;;;5.20;99.90;;;;;;4958774;28;20050;-72
2021/12/03 17:18:13;;;;;;;31.98;18.77;;;4.30;99.90;;;;;;4961722;28;20050;-71
2021/12/03 17:23:25;;;;;;;21.90;15.70;;;4.70;99.90;;;;;;4980480;28;20049;-71
2021/12/03 17:49:51;;;;;;;26.60;18.00;;;4.40;99.90;;;;;;5000435;28;20078;-70
2021/12/03 18:03:05;;;;;;;26.63;18.02;;;4.50;99.90;;;;;;4994826;28;20042;-71
2021/12/03 18:08:08;;;;;;;26.00;17.42;;;4.70;99.90;;;;;;4983204;28;20630;-71
2021/12/03 18:13:31;;;;;;;25.20;16.92;;;5.80;99.90;;;;;;4996766;28;20932;-71
2021/12/03 18:49:23;;;;;;;28.00;18.52;;;4.60;99.90;;;;;;4970493;28;20057;-71
2021/12/03 18:54:17;;;;;;;30.92;18.80;;;5.60;99.90;;;;;;4963269;28;20046;-71
2021/12/03 18:56:53;;;;;;;28.80;18.40;;;4.60;99.90;;;;;;4971893;28;20053;-71
2021/12/03 18:59:20;;;;;;;29.70;19.58;;;5.80;99.90;;;;;;4963079;28;20047;-71
2021/12/03 19:01:46;;;;;;;32.35;20.80;;;5.50;99.90;;;;;;4965555;28;20078;-71
2021/12/03 19:07:03;;;;;;;32.85;20.15;;;6.00;99.90;;;;;;4963736;28;20087;-71
2021/12/03 19:09:36;;;;;;;31.33;19.60;;;5.10;99.90;;;;;;4954387;28;20054;-71
2021/12/03 19:14:33;;;;;;;34.15;21.48;;;5.80;99.90;;;;;;4989739;28;20050;-72
2021/12/03 19:16:59;;;;;;;32.72;19.98;;;5.70;99.90;;;;;;4966003;28;20184;-72
2021/12/03 19:19:26;;;;;;;34.78;21.42;;;4.70;99.90;;;;;;5016805;28;20795;-71
2021/12/03 19:21:54;;;;;;;32.90;20.80;;;5.90;99.90;;;;;;5032794;28;20478;-71
2021/12/03 19:24:20;;;;;;;33.08;20.73;;;5.60;99.90;;;;;;4958062;28;20058;-72
2021/12/03 19:26:45;;;;;;;33.00;20.35;;;5.90;99.90;;;;;;4963629;28;20422;-71
2021/12/03 19:29:14;;;;;;;33.20;20.85;;;5.40;99.90;;;;;;4947491;28;20047;-71
2021/12/03 19:31:41;;;;;;;29.80;19.63;;;4.80;99.90;;;;;;4974202;28;20064;-72
2021/12/03 19:34:09;;;;;;;35.50;21.10;;;5.90;99.90;;;;;;4964661;28;20487;-72
2021/12/03 19:36:40;;;;;;;33.97;20.83;;;6.10;99.90;;;;;;4983731;28;20126;-73
2021/12/03 19:39:08;;;;;;;32.60;20.90;;;5.70;99.90;;;;;;4994202;28;20043;-71
2021/12/03 19:41:43;;;;;;;29.20;18.98;;;5.90;99.90;;;;;;4989450;28;20065;-72
2021/12/03 19:44:15;;;;;;;29.98;19.05;;;4.80;99.90;;;;;;4960746;28;20050;-73
2021/12/03 19:46:45;;;;;;;36.80;22.67;;;4.60;99.90;;;;;;5011733;28;20054;-71
2021/12/03 19:52:00;;;;;;;39.88;24.90;;;4.80;99.90;;;;;;4988389;28;20170;-72
2021/12/03 19:54:27;;;;;;;34.05;21.17;;;5.80;99.90;;;;;;4974220;28;20055;-72
2021/12/03 19:56:53;;;;;;;29.27;18.65;;;5.90;99.90;;;;;;4968996;28;20045;-72
2021/12/03 19:59:19;;;;;;;33.35;21.98;;;5.50;99.90;;;;;;4964073;28;20076;-71
2021/12/03 20:01:47;;;;;;;37.78;23.67;;;4.70;99.90;;;;;;4956730;28;20050;-72
2021/12/03 20:04:13;;;;;;;36.13;21.42;;;5.90;99.90;;;;;;4960632;28;20224;-71
2021/12/03 20:06:43;;;;;;;34.13;20.90;;;4.90;99.90;;;;;;4951552;28;20081;-71
2021/12/03 20:09:14;;;;;;;37.17;23.38;;;5.40;99.90;;;;;;4964417;28;20102;-71
2021/12/03 20:11:44;;;;;;;34.17;21.67;;;5.10;99.90;;;;;;4962204;28;20074;-72
2021/12/03 20:14:14;;;;;;;35.30;22.55;;;4.90;99.90;;;;;;4955384;28;20554;-72
2021/12/03 20:17:00;;;;;;;40.50;24.40;;;5.00;99.90;;;;;;4983330;28;20053;-72
2021/12/03 20:21:56;;;;;;;38.88;23.63;;;5.00;99.90;;;;;;5025042;28;20136;-71
2021/12/03 20:27:11;;;;;;;41.17;23.65;;;4.90;99.90;;;;;;5056132;28;20157;-71
2021/12/03 20:37:30;;;;;;;41.80;25.13;;;5.90;99.90;;;;;;4962820;28;20126;-71
2021/12/03 20:40:00;;;;;;;38.17;23.73;;;5.90;99.90;;;;;;4978907;28;20038;-72
2021/12/03 20:42:34;;;;;;;43.03;25.35;;;6.00;99.90;;;;;;5010606;28;20050;-72
2021/12/03 21:09:18;;;;;;;40.47;23.15;;;4.90;99.90;;;;;;4989444;28;20042;-70